Time;durP1;ratioP1;P1;durP2;ratioP2;P2;SDS_P1;SDS_P2;PMS_P1;PMS_P2;Temp;Humidity;BMP_temperature;BMP_pressure;BME280_temperature;BME280_humidity;BME280_pressure;Samples;Min_cycle;Max_cycle;Signal;HPM_P1;HPM_P2
2023/08/12 00:02:15;;;;;;;9.88;4.95;;;;;;;-142.57;82.52;115900.28;5063159;28;20025;-87
2023/08/12 00:04:41;;;;;;;7.25;4.90;;;;;;;-142.57;80.88;115900.28;5063064;28;20439;-89
2023/08/12 00:07:07;;;;;;;7.95;5.20;;;;;;;-142.57;80.38;115900.28;5043170;28;20048;-88
2023/08/12 00:09:32;;;;;;;9.13;5.75;;;;;;;-142.57;79.76;115900.28;5060990;28;20037;-87
2023/08/12 00:11:58;;;;;;;14.23;5.82;;;;;;;-142.57;81.94;115900.28;5060112;28;20056;-87
2023/08/12 00:14:23;;;;;;;8.68;5.90;;;;;;;-142.57;82.51;115900.28;5060162;28;20040;-88
2023/08/12 00:16:49;;;;;;;7.72;5.90;;;;;;;-142.57;82.36;115900.28;5061624;28;20068;-86
2023/08/12 00:19:15;;;;;;;8.30;5.95;;;;;;;-142.57;83.15;115900.28;5064837;28;20029;-87
2023/08/12 00:21:40;;;;;;;12.57;7.80;;;;;;;-142.57;80.75;115900.28;5033200;28;20041;-86
2023/08/12 00:24:06;;;;;;;15.05;7.78;;;;;;;-142.57;81.10;115900.28;5049152;28;20072;-87
2023/08/12 00:26:31;;;;;;;14.55;7.80;;;;;;;-142.57;83.35;115900.28;5067503;28;20105;-89
2023/08/12 00:28:57;;;;;;;14.38;8.13;;;;;;;-142.57;85.49;115900.28;5049778;28;20482;-89
2023/08/12 00:31:23;;;;;;;11.40;8.35;;;;;;;-142.57;85.37;115900.28;5066182;28;20037;-88
2023/08/12 00:33:52;;;;;;;12.05;8.70;;;;;;;-142.57;87.33;115900.28;5066045;28;20477;-86
2023/08/12 00:36:17;;;;;;;18.80;9.50;;;;;;;-142.57;88.14;115900.28;5047812;28;20057;-89
2023/08/12 00:38:43;;;;;;;16.35;8.73;;;;;;;-142.57;89.90;115900.28;5046736;28;20059;-90
2023/08/12 00:41:08;;;;;;;14.68;8.18;;;;;;;-142.57;88.54;115900.28;5065652;28;20029;-87
2023/08/12 00:43:34;;;;;;;12.98;8.63;;;;;;;-142.57;88.36;115900.28;5065058;28;20102;-89
2023/08/12 00:45:59;;;;;;;14.30;8.32;;;;;;;-142.57;88.34;115900.28;5064858;28;20032;-90
2023/08/12 00:48:26;;;;;;;13.90;8.20;;;;;;;-142.57;89.64;115900.28;5045945;28;20042;-88
2023/08/12 00:50:52;;;;;;;10.38;7.97;;;;;;;-142.57;89.82;115900.28;5042759;28;20037;-92
2023/08/12 00:53:18;;;;;;;15.15;8.38;;;;;;;-142.57;90.73;115900.28;5041548;28;20064;-87
2023/08/12 00:55:44;;;;;;;18.73;8.45;;;;;;;-142.57;90.04;115900.28;5060467;28;20037;-89
2023/08/12 00:58:10;;;;;;;13.90;8.60;;;;;;;-142.57;93.78;115900.28;5042735;28;20033;-90
2023/08/12 01:00:38;;;;;;;11.38;7.80;;;;;;;-142.57;94.67;115900.28;5061308;28;20033;-89
2023/08/12 01:03:05;;;;;;;9.88;7.75;;;;;;;-142.57;94.78;115900.28;5060778;28;20025;-87
2023/08/12 01:05:33;;;;;;;19.92;8.32;;;;;;;-142.57;95.59;115900.28;5042722;28;20396;-91
2023/08/12 01:08:05;;;;;;;14.38;6.93;;;;;;;-142.57;93.83;115900.28;5024983;28;20113;-88
2023/08/12 01:10:38;;;;;;;12.50;8.10;;;;;;;-142.57;92.38;115900.28;5040854;28;20071;-89
2023/08/12 01:13:25;;;;;;;11.20;7.63;;;;;;;-142.57;93.98;115900.28;5059452;28;20056;-88
2023/08/12 01:15:55;;;;;;;17.13;8.20;;;;;;;-142.57;95.47;115900.28;5063714;28;20040;-87
2023/08/12 01:18:25;;;;;;;11.90;7.65;;;;;;;-142.57;97.21;115900.28;5031708;28;20124;-85
2023/08/12 01:20:53;;;;;;;15.13;8.10;;;;;;;-142.57;99.97;115900.28;5048105;28;20036;-88
2023/08/12 01:23:20;;;;;;;11.75;8.15;;;;;;;-142.57;100.00;115900.28;5073731;28;20073;-90
2023/08/12 01:25:46;;;;;;;11.05;7.80;;;;;;;-142.57;98.95;115900.28;5078718;28;20029;-87
2023/08/12 01:28:14;;;;;;;14.60;8.73;;;;;;;-142.57;98.44;115900.28;5061624;28;20057;-90
2023/08/12 01:31:01;;;;;;;11.93;8.03;;;;;;;-142.57;95.51;115900.28;5079157;28;20093;-87
2023/08/12 01:33:46;;;;;;;11.25;7.38;;;;;;;-142.57;93.50;115900.28;5078987;28;20025;-86
2023/08/12 01:36:14;;;;;;;16.40;7.72;;;;;;;-142.57;90.96;115900.28;5060637;28;20097;-87
2023/08/12 01:38:41;;;;;;;13.07;7.45;;;;;;;-142.57;88.22;115900.28;5068607;28;20044;-87
2023/08/12 01:41:12;;;;;;;14.57;7.13;;;;;;;-142.57;87.35;115900.28;5068232;28;20052;-87
2023/08/12 01:43:40;;;;;;;10.30;7.07;;;;;;;-142.57;85.75;115900.28;5073674;28;20039;-84
2023/08/12 01:46:06;;;;;;;11.20;6.60;;;;;;;-142.57;85.30;115900.28;5038128;28;20041;-84
2023/08/12 01:48:31;;;;;;;12.32;6.88;;;;;;;-142.57;84.96;115900.28;5054885;28;20037;-87
2023/08/12 01:50:57;;;;;;;11.77;6.38;;;;;;;-142.57;85.38;115900.28;5040920;28;20021;-90
2023/08/12 01:53:22;;;;;;;14.18;6.90;;;;;;;-142.57;85.19;115900.28;5040747;28;20086;-90
2023/08/12 01:55:51;;;;;;;11.65;6.22;;;;;;;-142.57;85.24;115900.28;5044203;28;20040;-87
2023/08/12 01:58:16;;;;;;;13.80;6.32;;;;;;;-142.57;84.18;115900.28;5044695;28;20491;-85
2023/08/12 02:00:42;;;;;;;16.50;6.18;;;;;;;-142.57;82.90;115900.28;5025299;28;20035;-87
2023/08/12 02:03:13;;;;;;;9.20;5.70;;;;;;;-142.57;82.92;115900.28;5058330;28;20043;-93
2023/08/12 02:05:38;;;;;;;14.95;7.93;;;;;;;-142.57;82.41;115900.28;5060714;28;20037;-87
2023/08/12 02:08:10;;;;;;;17.02;8.70;;;;;;;-142.57;83.78;115900.28;5042982;28;20095;-87
2023/08/12 02:10:36;;;;;;;17.10;8.32;;;;;;;-142.57;83.31;115900.28;5061153;28;20040;-89
2023/08/12 02:13:06;;;;;;;12.77;5.93;;;;;;;-142.57;82.15;115900.28;5044307;28;20036;-88
2023/08/12 02:15:35;;;;;;;11.93;5.88;;;;;;;-142.57;80.95;115900.28;5044500;28;20052;-89
2023/08/12 02:18:00;;;;;;;9.30;6.25;;;;;;;-142.57;82.69;115900.28;5044844;28;20132;-89
2023/08/12 02:20:26;;;;;;;13.70;6.55;;;;;;;-142.57;84.76;115900.28;5044749;28;20115;-88
2023/08/12 02:22:53;;;;;;;14.20;6.63;;;;;;;-142.57;85.18;115900.28;5045227;28;20496;-88
2023/08/12 02:25:18;;;;;;;23.20;6.00;;;;;;;-142.57;84.39;115900.28;5045301;28;20045;-89
2023/08/12 02:27:44;;;;;;;8.48;6.03;;;;;;;-142.57;83.46;115900.28;5044346;28;20025;-89
2023/08/12 02:30:13;;;;;;;12.32;6.05;;;;;;;-142.57;83.66;115900.28;5060074;28;20033;-87
2023/08/12 02:32:43;;;;;;;11.45;6.60;;;;;;;-142.57;86.66;115900.28;5061711;28;20044;-87
2023/08/12 02:35:14;;;;;;;13.50;6.03;;;;;;;-142.57;86.45;115900.28;5063918;28;20029;-89
2023/08/12 02:37:59;;;;;;;12.63;6.10;;;;;;;-142.57;84.21;115900.28;5045040;28;20037;-88
2023/08/12 02:40:24;;;;;;;10.27;5.82;;;;;;;-142.57;84.01;115900.28;5058993;28;20476;-88
2023/08/12 02:42:50;;;;;;;7.00;5.13;;;;;;;-142.57;81.96;115900.28;5039172;28;20120;-89
2023/08/12 02:45:17;;;;;;;12.18;5.28;;;;;;;-142.57;81.43;115900.28;5038724;28;20060;-89
2023/08/12 02:47:43;;;;;;;9.68;5.60;;;;;;;-142.57;82.02;115900.28;5037674;28;20048;-91
2023/08/12 02:50:09;;;;;;;10.48;5.72;;;;;;;-142.57;81.34;115900.28;5055564;28;20041;-86
2023/08/12 02:52:35;;;;;;;11.38;5.82;;;;;;;-142.57;80.52;115900.28;5037947;28;20027;-87
2023/08/12 02:55:04;;;;;;;8.43;5.45;;;;;;;-142.57;83.20;115900.28;5038408;28;20061;-90
2023/08/12 02:57:29;;;;;;;9.80;5.88;;;;;;;-142.57;86.08;115900.28;5056246;28;20120;-91
2023/08/12 03:00:03;;;;;;;12.25;6.13;;;;;;;-142.57;85.08;115900.28;5037570;28;20087;-90
2023/08/12 03:02:29;;;;;;;11.40;5.75;;;;;;;-142.57;87.10;115900.28;5055784;28;20040;-89
2023/08/12 03:04:55;;;;;;;9.02;5.78;;;;;;;-142.57;89.49;115900.28;5058538;28;20375;-88
2023/08/12 03:07:20;;;;;;;10.35;5.97;;;;;;;-142.57;93.84;115900.28;5057574;28;20040;-88
2023/08/12 03:09:48;;;;;;;16.40;7.35;;;;;;;-142.57;96.57;115900.28;5038866;28;20071;-87
2023/08/12 03:12:16;;;;;;;9.25;6.53;;;;;;;-142.57;96.92;115900.28;5037792;28;20044;-88
2023/08/12 03:14:42;;;;;;;11.27;6.00;;;;;;;-142.57;98.11;115900.28;5038946;28;20453;-87
2023/08/12 03:17:08;;;;;;;10.52;6.78;;;;;;;-142.57;99.57;115900.28;5038600;28;20029;-89
2023/08/12 03:19:35;;;;;;;10.80;6.30;;;;;;;-142.57;99.11;115900.28;5021696;28;20098;-87
2023/08/12 03:22:01;;;;;;;11.48;7.28;;;;;;;-142.57;99.92;115900.28;5021767;28;20487;-92
2023/08/12 03:24:27;;;;;;;11.35;7.03;;;;;;;-142.57;100.00;115900.28;5037883;28;20067;-87
2023/08/12 03:26:53;;;;;;;11.30;7.70;;;;;;;-142.57;99.41;115900.28;5037678;28;20053;-86
2023/08/12 03:29:20;;;;;;;10.80;7.07;;;;;;;-142.57;99.02;115900.28;5037147;28;20036;-86
2023/08/12 03:31:47;;;;;;;12.50;7.10;;;;;;;-142.57;98.05;115900.28;5053088;28;20036;-89
2023/08/12 03:34:16;;;;;;;16.80;6.68;;;;;;;-142.57;98.52;115900.28;5054489;28;20067;-88
2023/08/12 03:36:43;;;;;;;10.05;7.03;;;;;;;-142.57;98.15;115900.28;5053816;28;20033;-89
2023/08/12 03:39:09;;;;;;;9.60;7.00;;;;;;;-142.57;97.75;115900.28;5055473;28;20037;-86
2023/08/12 03:41:38;;;;;;;11.23;7.30;;;;;;;-142.57;97.62;115900.28;5054672;28;20025;-88
2023/08/12 03:44:08;;;;;;;8.82;6.47;;;;;;;-142.57;97.45;115900.28;5055262;28;20059;-87
2023/08/12 03:46:34;;;;;;;9.45;7.13;;;;;;;-142.57;96.92;115900.28;5067134;28;20018;-85
2023/08/12 03:49:01;;;;;;;13.05;7.15;;;;;;;-142.57;97.85;115900.28;5073919;28;20021;-85
2023/08/12 03:51:31;;;;;;;16.27;7.78;;;;;;;-142.57;98.91;115900.28;5073125;28;20025;-86
2023/08/12 03:54:13;;;;;;;14.30;8.07;;;;;;;-142.57;98.91;115900.28;5043629;28;20113;-87
2023/08/12 03:56:39;;;;;;;11.45;8.10;;;;;;;-142.57;97.65;115900.28;5058321;28;20208;-89
2023/08/12 03:59:05;;;;;;;10.55;8.07;;;;;;;-142.57;96.78;115900.28;5056432;28;20048;-85
2023/08/12 04:01:30;;;;;;;17.35;8.70;;;;;;;-142.57;95.30;115900.28;5059651;28;20120;-91
2023/08/12 04:03:59;;;;;;;14.05;8.57;;;;;;;-142.57;96.88;115900.28;5061898;28;20120;-88
2023/08/12 04:06:26;;;;;;;12.85;8.70;;;;;;;-142.57;96.07;115900.28;5062041;28;20072;-87
2023/08/12 04:08:53;;;;;;;20.08;9.02;;;;;;;-142.57;96.40;115900.28;5064096;28;20032;-88
2023/08/12 04:11:19;;;;;;;20.35;8.95;;;;;;;-142.57;96.43;115900.28;5064074;28;20399;-87
2023/08/12 04:13:45;;;;;;;14.98;8.18;;;;;;;-142.57;95.66;115900.28;5063106;28;20031;-89
2023/08/12 04:16:14;;;;;;;13.85;8.25;;;;;;;-142.57;95.27;115900.28;5058668;28;20128;-86
2023/08/12 04:18:40;;;;;;;12.00;8.13;;;;;;;-142.57;95.14;115900.28;5057966;28;20037;-88
2023/08/12 04:21:05;;;;;;;13.45;8.40;;;;;;;-142.57;95.21;115900.28;5040979;28;20028;-89
2023/08/12 04:23:34;;;;;;;13.68;8.57;;;;;;;-142.57;94.71;115900.28;5059712;28;20132;-88
2023/08/12 04:25:59;;;;;;;12.73;8.43;;;;;;;-142.57;94.45;115900.28;5060561;28;20029;-90
2023/08/12 04:28:27;;;;;;;17.90;7.82;;;;;;;-142.57;96.00;115900.28;5060516;28;20051;-88
2023/08/12 04:30:52;;;;;;;12.70;8.07;;;;;;;-142.57;95.57;115900.28;5055992;28;20040;-87
2023/08/12 04:33:20;;;;;;;12.13;7.72;;;;;;;-142.57;96.99;115900.28;5080401;28;20048;-87
2023/08/12 04:35:49;;;;;;;11.07;7.95;;;;;;;-142.57;97.88;115900.28;5079370;28;20052;-87
2023/08/12 04:38:16;;;;;;;12.60;8.13;;;;;;;-142.57;100.00;115900.28;5078304;28;20047;-85
2023/08/12 04:40:44;;;;;;;12.82;8.38;;;;;;;-142.57;100.00;115900.28;5067567;28;20496;-86
2023/08/12 04:43:13;;;;;;;13.73;9.52;;;;;;;-142.57;100.00;115900.28;5058566;28;20029;-88
2023/08/12 04:45:39;;;;;;;12.20;8.88;;;;;;;-142.57;100.00;115900.28;5012542;28;20037;-87
2023/08/12 04:48:08;;;;;;;13.63;9.32;;;;;;;-142.57;100.00;115900.28;5046088;28;20148;-93
2023/08/12 04:50:38;;;;;;;10.60;8.80;;;;;;;-142.57;100.00;115900.28;5027878;28;20033;-92
2023/08/12 04:53:05;;;;;;;14.50;9.75;;;;;;;-142.57;100.00;115900.28;5040031;28;20037;-87
2023/08/12 04:55:31;;;;;;;24.45;9.18;;;;;;;-142.57;100.00;115900.28;5020970;28;20037;-90
2023/08/12 04:58:01;;;;;;;14.65;8.48;;;;;;;-142.57;99.49;115900.28;5022473;28;20033;-86
2023/08/12 05:00:28;;;;;;;12.43;8.93;;;;;;;-142.57;99.25;115900.28;5021873;28;20034;-84
2023/08/12 05:02:56;;;;;;;13.15;8.98;;;;;;;-142.57;98.69;115900.28;5039163;28;20033;-92
2023/08/12 05:05:22;;;;;;;12.88;8.82;;;;;;;-142.57;98.06;115900.28;5022185;28;20036;-90
2023/08/12 05:07:48;;;;;;;12.07;8.95;;;;;;;-142.57;97.99;115900.28;5004914;28;20057;-91
2023/08/12 05:10:16;;;;;;;11.30;8.95;;;;;;;-142.57;94.71;115900.28;5021973;28;20175;-91
2023/08/12 05:12:47;;;;;;;18.73;10.10;;;;;;;-142.57;94.82;115900.28;5021199;28;20037;-92
2023/08/12 05:15:14;;;;;;;15.88;9.88;;;;;;;-142.57;94.28;115900.28;5022344;28;20132;-92
2023/08/12 05:17:42;;;;;;;16.50;9.18;;;;;;;-142.57;92.64;115900.28;5040391;28;20472;-91
2023/08/12 05:20:08;;;;;;;16.80;9.65;;;;;;;-142.57;92.36;115900.28;5021036;28;20033;-88
2023/08/12 05:22:34;;;;;;;13.55;9.70;;;;;;;-142.57;91.17;115900.28;5019704;28;20480;-90
2023/08/12 05:25:00;;;;;;;17.73;10.10;;;;;;;-142.57;91.16;115900.28;5003227;28;20396;-88
2023/08/12 05:27:32;;;;;;;18.20;9.45;;;;;;;-142.57;89.69;115900.28;5004744;28;20044;-86
2023/08/12 05:29:57;;;;;;;22.48;9.68;;;;;;;-142.57;88.75;115900.28;5037906;28;20038;-90
2023/08/12 05:32:23;;;;;;;18.98;9.40;;;;;;;-142.57;88.75;115900.28;5041763;28;20036;-90
2023/08/12 05:34:52;;;;;;;14.20;8.73;;;;;;;-142.57;87.61;115900.28;5025173;28;20090;-93
2023/08/12 05:37:18;;;;;;;15.18;8.95;;;;;;;-142.57;86.49;115900.28;5059476;28;20033;-90
2023/08/12 05:39:43;;;;;;;13.25;8.88;;;;;;;-142.57;85.85;115900.28;5063140;28;20062;-87
2023/08/12 05:42:09;;;;;;;13.10;8.02;;;;;;;-142.57;83.46;115900.28;5056888;28;20106;-90
2023/08/12 05:44:34;;;;;;;16.15;9.02;;;;;;;-142.57;83.54;115900.28;5058226;28;20383;-88
2023/08/12 05:47:00;;;;;;;13.63;8.85;;;;;;;-142.57;81.64;115900.28;5056036;28;20048;-86
2023/08/12 05:49:25;;;;;;;16.25;9.07;;;;;;;-142.57;79.64;115900.28;5054860;28;20033;-87
2023/08/12 05:51:51;;;;;;;20.30;9.73;;;;;;;-142.57;77.50;115900.28;5055454;28;20033;-85
2023/08/12 05:54:16;;;;;;;13.27;9.43;;;;;;;-142.57;76.89;115900.28;5021258;28;20116;-89
2023/08/12 05:56:42;;;;;;;21.75;9.75;;;;;;;-142.57;74.32;115900.28;5056802;28;20028;-88
2023/08/12 05:59:07;;;;;;;23.80;9.32;;;;;;;-142.57;72.01;115900.28;5057274;28;20396;-88
2023/08/12 06:01:33;;;;;;;13.23;9.13;;;;;;;-142.57;70.99;115900.28;5058048;28;20099;-91
2023/08/12 06:04:02;;;;;;;15.43;9.68;;;;;;;-142.57;70.77;115900.28;5056036;28;20033;-89
2023/08/12 06:06:31;;;;;;;15.25;9.10;;;;;;;-142.57;67.55;115900.28;5061484;28;20105;-88
2023/08/12 06:08:59;;;;;;;13.13;8.82;;;;;;;-142.57;64.63;115900.28;5045966;28;20033;-91
2023/08/12 06:11:25;;;;;;;14.50;9.43;;;;;;;-142.57;65.09;115900.28;5069418;28;20029;-86
2023/08/12 06:13:50;;;;;;;19.83;9.63;;;;;;;-142.57;63.95;115900.28;5055036;28;20044;-87
2023/08/12 06:16:16;;;;;;;11.38;7.95;;;;;;;-142.57;61.70;115900.28;5071609;28;20051;-86
2023/08/12 06:18:42;;;;;;;22.17;8.45;;;;;;;-142.57;61.51;115900.28;5062321;28;20041;-89
2023/08/12 06:21:08;;;;;;;12.30;7.93;;;;;;;-142.57;57.97;115900.28;5056772;28;20250;-87
2023/08/12 06:23:33;;;;;;;19.63;8.07;;;;;;;-142.57;55.15;115900.28;5055449;28;20501;-88
2023/08/12 06:26:02;;;;;;;14.80;8.18;;;;;;;-142.57;57.03;115900.28;5055350;28;20475;-89
2023/08/12 06:28:27;;;;;;;11.80;8.30;;;;;;;-142.57;59.55;115900.28;5054795;28;20041;-88
2023/08/12 06:30:53;;;;;;;11.85;8.02;;;;;;;-142.57;62.78;115900.28;5037554;28;20021;-89
2023/08/12 06:33:18;;;;;;;22.10;8.30;;;;;;;-142.57;62.26;115900.28;5055813;28;20090;-86
2023/08/12 06:35:44;;;;;;;15.73;7.60;;;;;;;-142.57;60.76;115900.28;5055503;28;20060;-89
2023/08/12 06:38:10;;;;;;;16.95;7.55;;;;;;;-142.57;57.99;115900.28;5055776;28;20391;-90
2023/08/12 06:40:37;;;;;;;12.02;7.13;;;;;;;-142.57;60.46;115900.28;5056226;28;20044;-89
2023/08/12 06:43:02;;;;;;;12.30;7.63;;;;;;;-142.57;57.46;115900.28;5021946;28;20040;-88
2023/08/12 06:45:28;;;;;;;16.55;7.47;;;;;;;-142.57;56.72;115900.28;5037439;28;20144;-88
2023/08/12 06:47:53;;;;;;;15.05;7.18;;;;;;;-142.57;55.30;115900.28;5055276;28;20041;-87
2023/08/12 06:50:22;;;;;;;22.48;8.05;;;;;;;-142.57;54.63;115900.28;5056076;28;20037;-88
2023/08/12 06:52:48;;;;;;;16.20;7.78;;;;;;;-142.57;52.47;115900.28;5056062;28;20432;-88
2023/08/12 06:55:19;;;;;;;15.90;7.28;;;;;;;-142.57;53.64;115900.28;5054948;28;20072;-89
2023/08/12 06:57:45;;;;;;;15.30;6.50;;;;;;;-142.57;51.57;115900.28;5054993;28;20390;-87
2023/08/12 07:00:11;;;;;;;11.80;7.00;;;;;;;-142.57;50.76;115900.28;5037068;28;20033;-88
2023/08/12 07:02:42;;;;;;;10.55;6.40;;;;;;;-142.57;48.57;115900.28;5036760;28;20076;-87
2023/08/12 07:05:08;;;;;;;12.18;6.45;;;;;;;-142.57;46.85;115900.28;5055336;28;20044;-88
2023/08/12 07:07:33;;;;;;;8.10;5.72;;;;;;;-142.57;45.91;115900.28;5038168;28;20029;-87
2023/08/12 07:10:01;;;;;;;13.70;6.07;;;;;;;-142.57;44.20;115900.28;5056159;28;20459;-88
2023/08/12 07:12:27;;;;;;;12.15;6.22;;;;;;;-142.57;44.42;115900.28;5055515;28;20064;-89
2023/08/12 07:14:53;;;;;;;13.40;5.97;;;;;;;-142.57;44.02;115900.28;5022319;28;20040;-89
2023/08/12 07:17:18;;;;;;;11.88;7.22;;;;;;;-142.57;46.36;115900.28;5038905;28;20411;-90
2023/08/12 07:19:44;;;;;;;9.32;6.20;;;;;;;-142.57;46.88;115900.28;5057630;28;20044;-89
2023/08/12 07:22:09;;;;;;;8.00;6.35;;;;;;;-142.57;48.19;115900.28;5040679;28;20364;-89
2023/08/12 07:24:36;;;;;;;12.65;6.78;;;;;;;-142.57;49.73;115900.28;5057374;28;20044;-88
2023/08/12 07:27:01;;;;;;;10.27;6.50;;;;;;;-142.57;48.14;115900.28;5039610;28;20033;-92
2023/08/12 07:29:27;;;;;;;23.02;6.95;;;;;;;-142.57;48.00;115900.28;5057370;28;20506;-88
2023/08/12 07:31:56;;;;;;;10.18;5.90;;;;;;;-142.57;46.60;115900.28;5057876;28;20025;-87
2023/08/12 07:34:21;;;;;;;12.80;5.43;;;;;;;-142.57;43.58;115900.28;5051915;28;20033;-90
2023/08/12 07:36:47;;;;;;;7.28;5.43;;;;;;;-142.57;43.21;115900.28;5081227;28;20104;-86
2023/08/12 07:39:13;;;;;;;7.90;4.50;;;;;;;-142.57;43.25;115900.28;5081050;28;20032;-89
2023/08/12 07:41:38;;;;;;;9.95;5.05;;;;;;;-142.57;41.67;115900.28;5080790;28;20063;-88
2023/08/12 07:44:04;;;;;;;9.90;4.32;;;;;;;-142.57;42.84;115900.28;5073541;28;20113;-88
2023/08/12 07:46:30;;;;;;;8.32;5.60;;;;;;;-142.57;41.85;115900.28;5074889;28;20552;-88
2023/08/12 07:48:57;;;;;;;9.07;4.93;;;;;;;-142.57;41.59;115900.28;5072529;28;20054;-88
2023/08/12 07:51:22;;;;;;;9.68;5.40;;;;;;;-142.57;41.46;115900.28;5043490;28;20040;-91
2023/08/12 07:53:48;;;;;;;11.55;5.57;;;;;;;-142.57;41.98;115900.28;5039150;28;20048;-90
2023/08/12 07:56:14;;;;;;;14.90;5.07;;;;;;;-142.57;42.86;115900.28;5064002;28;20055;-88
2023/08/12 07:58:40;;;;;;;9.45;5.82;;;;;;;-142.57;43.13;115900.28;5043063;28;20605;-90
2023/08/12 08:01:06;;;;;;;14.27;5.68;;;;;;;-142.57;44.78;115900.28;5025846;28;20036;-90
2023/08/12 08:03:31;;;;;;;8.25;6.00;;;;;;;-142.57;43.69;115900.28;5061047;28;20102;-90
2023/08/12 08:05:57;;;;;;;9.60;6.50;;;;;;;-142.57;46.83;115900.28;5061528;28;20025;-89
2023/08/12 08:08:22;;;;;;;13.68;5.50;;;;;;;-142.57;45.95;115900.28;5060422;28;20048;-91
2023/08/12 08:10:48;;;;;;;9.50;4.63;;;;;;;-142.57;42.91;115900.28;5043099;28;20037;-90
2023/08/12 08:13:14;;;;;;;10.00;5.00;;;;;;;-142.57;42.05;115900.28;5059949;28;20096;-87
2023/08/12 08:15:39;;;;;;;10.73;4.78;;;;;;;-142.57;40.16;115900.28;5059636;28;20051;-89
2023/08/12 08:18:06;;;;;;;7.72;4.78;;;;;;;-142.57;40.37;115900.28;5066264;28;20044;-90
2023/08/12 08:20:35;;;;;;;6.40;4.70;;;;;;;-142.57;40.35;115900.28;5072512;28;20108;-88
2023/08/12 08:23:01;;;;;;;8.90;4.13;;;;;;;-142.57;40.97;115900.28;5041265;28;20033;-90
2023/08/12 08:25:26;;;;;;;10.43;5.00;;;;;;;-142.57;40.71;115900.28;5041216;28;20047;-88
2023/08/12 08:27:52;;;;;;;10.00;4.13;;;;;;;-142.57;39.28;115900.28;5058312;28;20045;-88
2023/08/12 08:30:18;;;;;;;11.27;4.85;;;;;;;-142.57;38.64;115900.28;5057710;28;20057;-87
2023/08/12 08:32:46;;;;;;;7.35;5.18;;;;;;;-142.57;39.15;115900.28;5040079;28;20029;-90
2023/08/12 08:35:12;;;;;;;7.45;4.93;;;;;;;-142.57;39.02;115900.28;5057298;28;20101;-89
2023/08/12 08:37:37;;;;;;;13.40;4.72;;;;;;;-142.57;39.71;115900.28;5057842;28;20510;-88
2023/08/12 08:40:03;;;;;;;7.57;4.40;;;;;;;-142.57;39.09;115900.28;5040582;28;20029;-88
2023/08/12 08:42:29;;;;;;;7.43;3.72;;;;;;;-142.57;38.49;115900.28;5040308;28;20479;-89
2023/08/12 08:45:01;;;;;;;9.13;4.28;;;;;;;-142.57;37.10;115900.28;5039720;28;20037;-89
2023/08/12 08:47:27;;;;;;;;;;;;;;;-142.57;35.68;115900.28;5041790;28;20071;-90
2023/08/12 08:50:00;;;;;;;13.05;4.80;;;;;;;-142.57;36.80;115900.28;5069006;28;19916;-88
2023/08/12 08:52:26;;;;;;;11.05;4.35;;;;;;;-142.57;38.65;115900.28;5059756;28;20392;-87
2023/08/12 08:54:52;;;;;;;10.82;4.45;;;;;;;-142.57;39.66;115900.28;5043910;28;20036;-90
2023/08/12 08:57:19;;;;;;;7.40;4.43;;;;;;;-142.57;38.44;115900.28;5043277;28;20041;-90
2023/08/12 08:59:45;;;;;;;14.13;4.80;;;;;;;-142.57;38.02;115900.28;5060179;28;20049;-88
2023/08/12 09:02:17;;;;;;;5.20;3.83;;;;;;;-142.57;35.93;115900.28;5041028;28;20040;-89
2023/08/12 09:04:46;;;;;;;5.03;3.83;;;;;;;-142.57;35.30;115900.28;5057562;28;20097;-87
2023/08/12 09:07:13;;;;;;;9.55;4.32;;;;;;;-142.57;36.92;115900.28;5041592;28;20033;-90
2023/08/12 09:09:48;;;;;;;8.23;4.60;;;;;;;-142.57;37.49;115900.28;5057444;28;20055;-89
2023/08/12 09:12:16;;;;;;;9.40;5.97;;;;;;;-142.57;37.07;115900.28;5057203;28;20025;-89
2023/08/12 09:14:43;;;;;;;17.73;5.30;;;;;;;-142.57;37.53;115900.28;5039288;28;20069;-89
2023/08/12 09:17:09;;;;;;;9.48;5.13;;;;;;;-142.57;38.95;115900.28;5039781;28;20044;-91
2023/08/12 09:19:34;;;;;;;7.30;5.10;;;;;;;-142.57;37.32;115900.28;5056774;28;20036;-90
2023/08/12 09:22:03;;;;;;;11.75;4.68;;;;;;;-142.57;36.72;115900.28;5057308;28;20037;-90
2023/08/12 09:24:29;;;;;;;9.77;4.60;;;;;;;-142.57;37.34;115900.28;5057314;28;20043;-89
2023/08/12 09:26:58;;;;;;;10.73;4.95;;;;;;;-142.57;36.73;115900.28;5057863;28;20041;-88
2023/08/12 09:29:32;;;;;;;8.18;4.80;;;;;;;-142.57;35.71;115900.28;5057947;28;20048;-89
2023/08/12 09:32:12;;;;;;;14.85;5.38;;;;;;;-142.57;35.90;115900.28;5056794;28;20029;-89
2023/08/12 09:34:51;;;;;;;8.88;4.85;;;;;;;-142.57;35.49;115900.28;5056860;28;20059;-86
2023/08/12 09:37:18;;;;;;;8.10;4.80;;;;;;;-142.57;35.70;115900.28;5056755;28;20037;-90
2023/08/12 09:39:47;;;;;;;13.07;4.30;;;;;;;-142.57;35.32;115900.28;5039001;28;20062;-88
2023/08/12 09:42:13;;;;;;;10.18;4.65;;;;;;;-142.57;35.00;115900.28;5059405;28;20041;-91
2023/08/12 09:44:43;;;;;;;9.63;4.45;;;;;;;-142.57;34.72;115900.28;5060210;28;20552;-87
2023/08/12 09:47:09;;;;;;;9.38;4.15;;;;;;;-142.57;35.15;115900.28;5025107;28;20452;-90
2023/08/12 09:49:35;;;;;;;10.45;4.47;;;;;;;-142.57;35.54;115900.28;5059598;28;20029;-90
2023/08/12 09:52:05;;;;;;;9.27;3.83;;;;;;;-142.57;34.58;115900.28;5061909;28;20041;-88
2023/08/12 09:54:37;;;;;;;13.45;3.60;;;;;;;-142.57;34.15;115900.28;5061718;28;20067;-85
2023/08/12 09:57:08;;;;;;;13.13;4.07;;;;;;;-142.57;33.79;115900.28;5060168;28;20045;-91
2023/08/12 09:59:35;;;;;;;8.10;3.85;;;;;;;-142.57;35.23;115900.28;5060723;28;20031;-85
2023/08/12 10:02:07;;;;;;;6.78;3.88;;;;;;;-142.57;34.55;115900.28;5062370;28;20021;-90
2023/08/12 10:04:41;;;;;;;15.60;3.22;;;;;;;-142.57;35.38;115900.28;5062018;28;20120;-90
2023/08/12 10:07:14;;;;;;;5.03;2.90;;;;;;;-142.57;34.90;115900.28;5061744;28;20033;-87
2023/08/12 10:09:40;;;;;;;6.45;2.80;;;;;;;-142.57;34.25;115900.28;5043153;28;20040;-88
2023/08/12 10:12:07;;;;;;;30.55;3.20;;;;;;;-142.57;34.42;115900.28;5060203;28;20400;-88
2023/08/12 10:14:33;;;;;;;8.18;2.58;;;;;;;-142.57;34.02;115900.28;5063052;28;20495;-88
2023/08/12 10:17:00;;;;;;;4.85;2.65;;;;;;;-142.57;34.44;115900.28;5060934;28;20087;-91
2023/08/12 10:19:26;;;;;;;9.13;3.72;;;;;;;-142.57;34.74;115900.28;5061261;28;20032;-89
2023/08/12 10:21:57;;;;;;;9.88;2.85;;;;;;;-142.57;34.76;115900.28;5060904;28;20097;-89
2023/08/12 10:24:24;;;;;;;8.17;2.93;;;;;;;-142.57;33.90;115900.28;5040755;28;20047;-87
2023/08/12 10:26:54;;;;;;;6.88;2.13;;;;;;;-142.57;33.34;115900.28;5056570;28;20142;-87
2023/08/12 10:29:20;;;;;;;5.03;2.33;;;;;;;-142.57;33.30;115900.28;5055916;28;20087;-84
2023/08/12 10:31:50;;;;;;;11.95;2.58;;;;;;;-142.57;33.97;115900.28;5037743;28;20032;-85
2023/08/12 10:34:23;;;;;;;5.25;2.65;;;;;;;-142.57;33.34;115900.28;5037061;28;20068;-83
2023/08/12 10:36:57;;;;;;;5.00;2.70;;;;;;;-142.57;32.44;115900.28;5056987;28;20035;-82
2023/08/12 10:39:28;;;;;;;8.23;3.30;;;;;;;-142.57;32.34;115900.28;5050500;28;20486;-81
2023/08/12 10:41:57;;;;;;;8.85;2.80;;;;;;;-142.57;31.67;115900.28;5072872;28;20060;-82
2023/08/12 10:44:52;;;;;;;7.70;2.50;;;;;;;-142.57;32.22;115900.28;5040612;28;20041;-80
2023/08/12 10:47:17;;;;;;;12.32;2.97;;;;;;;-142.57;33.72;115900.28;5069265;28;20068;-82
2023/08/12 10:49:52;;;;;;;6.32;2.50;;;;;;;-142.57;33.61;115900.28;5075532;28;20080;-85
2023/08/12 10:52:37;;;;;;;6.10;2.08;;;;;;;-142.57;32.81;115900.28;5053858;28;20093;-81
2023/08/12 10:55:19;;;;;;;8.02;2.20;;;;;;;-142.57;31.37;115900.28;5057039;28;20033;-81
2023/08/12 10:57:45;;;;;;;9.15;2.08;;;;;;;-142.57;30.90;115900.28;5056669;28;20040;-81
2023/08/12 11:00:14;;;;;;;8.55;2.05;;;;;;;-142.57;31.96;115900.28;5054873;28;20028;-83
2023/08/12 11:02:42;;;;;;;4.25;2.00;;;;;;;-142.57;31.51;115900.28;5054307;28;20032;-82
2023/08/12 11:05:09;;;;;;;4.07;2.05;;;;;;;-142.57;31.68;115900.28;5018843;28;20494;-82
2023/08/12 11:07:43;;;;;;;10.65;2.25;;;;;;;-142.57;31.46;115900.28;5053371;28;20036;-84